sensor_id;sensor_type;location;lat;lon;timestamp;temperature;humidity
21169;DHT22;10742;51.816;8.662;2023-02-15T00:02:47;7.90;84.60
21169;DHT22;10742;51.816;8.662;2023-02-15T00:05:50;7.90;84.80
21169;DHT22;10742;51.816;8.662;2023-02-15T00:08:54;7.80;85.00
21169;DHT22;10742;51.816;8.662;2023-02-15T00:11:58;7.80;85.20
21169;DHT22;10742;51.816;8.662;2023-02-15T00:15:02;7.70;85.20
21169;DHT22;10742;51.816;8.662;2023-02-15T00:18:05;7.70;85.40
21169;DHT22;10742;51.816;8.662;2023-02-15T00:21:09;7.70;85.50
21169;DHT22;10742;51.816;8.662;2023-02-15T00:24:15;7.60;85.60
21169;DHT22;10742;51.816;8.662;2023-02-15T00:27:17;7.60;85.70
21169;DHT22;10742;51.816;8.662;2023-02-15T00:30:20;7.60;85.70
21169;DHT22;10742;51.816;8.662;2023-02-15T00:33:24;7.60;85.70
21169;DHT22;10742;51.816;8.662;2023-02-15T00:36:29;7.50;85.70
21169;DHT22;10742;51.816;8.662;2023-02-15T00:39:32;7.60;85.90
21169;DHT22;10742;51.816;8.662;2023-02-15T00:42:34;7.50;85.90
21169;DHT22;10742;51.816;8.662;2023-02-15T00:45:37;7.50;85.90
21169;DHT22;10742;51.816;8.662;2023-02-15T00:48:39;7.50;86.00
21169;DHT22;10742;51.816;8.662;2023-02-15T00:51:41;7.50;86.00
21169;DHT22;10742;51.816;8.662;2023-02-15T00:54:43;7.40;85.90
21169;DHT22;10742;51.816;8.662;2023-02-15T00:57:46;7.40;86.00
21169;DHT22;10742;51.816;8.662;2023-02-15T01:00:49;7.40;85.90
21169;DHT22;10742;51.816;8.662;2023-02-15T01:03:51;7.30;85.80
21169;DHT22;10742;51.816;8.662;2023-02-15T01:06:54;7.30;85.70
21169;DHT22;10742;51.816;8.662;2023-02-15T01:09:56;7.30;85.80
21169;DHT22;10742;51.816;8.662;2023-02-15T01:12:58;7.20;85.70
21169;DHT22;10742;51.816;8.662;2023-02-15T01:16:02;7.20;85.70
21169;DHT22;10742;51.816;8.662;2023-02-15T01:19:05;7.10;85.80
21169;DHT22;10742;51.816;8.662;2023-02-15T01:22:08;7.10;85.70
21169;DHT22;10742;51.816;8.662;2023-02-15T01:25:10;7.10;85.80
21169;DHT22;10742;51.816;8.662;2023-02-15T01:28:13;7.10;86.00
21169;DHT22;10742;51.816;8.662;2023-02-15T01:31:17;7.00;85.90
21169;DHT22;10742;51.816;8.662;2023-02-15T01:34:20;7.00;86.00
21169;DHT22;10742;51.816;8.662;2023-02-15T01:37:22;6.90;85.80
21169;DHT22;10742;51.816;8.662;2023-02-15T01:40:25;6.90;85.80
21169;DHT22;10742;51.816;8.662;2023-02-15T01:43:45;6.80;85.70
21169;DHT22;10742;51.816;8.662;2023-02-15T01:46:51;6.80;86.20
21169;DHT22;10742;51.816;8.662;2023-02-15T01:50:14;6.70;86.40
21169;DHT22;10742;51.816;8.662;2023-02-15T01:53:43;6.70;86.30
21169;DHT22;10742;51.816;8.662;2023-02-15T01:56:48;6.70;86.40
21169;DHT22;10742;51.816;8.662;2023-02-15T01:59:54;6.60;86.00
21169;DHT22;10742;51.816;8.662;2023-02-15T02:02:58;6.60;86.10
21169;DHT22;10742;51.816;8.662;2023-02-15T02:06:01;6.60;85.90
21169;DHT22;10742;51.816;8.662;2023-02-15T02:09:03;6.50;85.60
21169;DHT22;10742;51.816;8.662;2023-02-15T02:12:07;6.40;85.50
21169;DHT22;10742;51.816;8.662;2023-02-15T02:15:10;6.40;85.40
21169;DHT22;10742;51.816;8.662;2023-02-15T02:18:34;6.20;85.40
21169;DHT22;10742;51.816;8.662;2023-02-15T02:22:06;6.10;86.00
21169;DHT22;10742;51.816;8.662;2023-02-15T02:25:32;6.00;86.20
21169;DHT22;10742;51.816;8.662;2023-02-15T02:35:45;5.80;86.80
21169;DHT22;10742;51.816;8.662;2023-02-15T02:42:35;5.60;87.00
21169;DHT22;10742;51.816;8.662;2023-02-15T02:46:00;5.60;87.20
21169;DHT22;10742;51.816;8.662;2023-02-15T02:49:05;5.50;87.50
21169;DHT22;10742;51.816;8.662;2023-02-15T02:52:40;5.50;87.40
21169;DHT22;10742;51.816;8.662;2023-02-15T02:56:12;5.50;88.00
21169;DHT22;10742;51.816;8.662;2023-02-15T02:59:26;5.50;88.30
21169;DHT22;10742;51.816;8.662;2023-02-15T03:02:37;5.50;87.80
21169;DHT22;10742;51.816;8.662;2023-02-15T03:05:45;5.50;88.10
21169;DHT22;10742;51.816;8.662;2023-02-15T03:08:54;5.60;88.10
21169;DHT22;10742;51.816;8.662;2023-02-15T03:11:59;5.60;89.10
21169;DHT22;10742;51.816;8.662;2023-02-15T03:15:23;5.60;88.20
21169;DHT22;10742;51.816;8.662;2023-02-15T03:18:35;5.60;88.90
21169;DHT22;10742;51.816;8.662;2023-02-15T03:21:48;5.60;88.60
21169;DHT22;10742;51.816;8.662;2023-02-15T03:25:09;5.70;88.60
21169;DHT22;10742;51.816;8.662;2023-02-15T03:28:18;5.70;88.20
21169;DHT22;10742;51.816;8.662;2023-02-15T03:31:24;5.70;88.40
21169;DHT22;10742;51.816;8.662;2023-02-15T03:34:29;5.70;88.40
21169;DHT22;10742;51.816;8.662;2023-02-15T03:37:38;5.70;88.30
21169;DHT22;10742;51.816;8.662;2023-02-15T03:40:44;5.70;88.40
21169;DHT22;10742;51.816;8.662;2023-02-15T03:44:21;5.70;88.30
21169;DHT22;10742;51.816;8.662;2023-02-15T03:47:30;5.70;88.80
21169;DHT22;10742;51.816;8.662;2023-02-15T03:50:35;5.70;88.60
21169;DHT22;10742;51.816;8.662;2023-02-15T03:53:57;5.70;88.70
21169;DHT22;10742;51.816;8.662;2023-02-15T03:57:01;5.70;88.70
21169;DHT22;10742;51.816;8.662;2023-02-15T04:00:24;5.70;88.80
21169;DHT22;10742;51.816;8.662;2023-02-15T04:03:51;5.80;88.90
21169;DHT22;10742;51.816;8.662;2023-02-15T04:06:58;5.70;89.00
21169;DHT22;10742;51.816;8.662;2023-02-15T04:10:01;5.80;88.70
21169;DHT22;10742;51.816;8.662;2023-02-15T04:13:28;5.80;88.60
21169;DHT22;10742;51.816;8.662;2023-02-15T04:16:31;5.80;88.70
21169;DHT22;10742;51.816;8.662;2023-02-15T04:19:34;5.80;88.70
21169;DHT22;10742;51.816;8.662;2023-02-15T04:22:55;5.80;88.80
21169;DHT22;10742;51.816;8.662;2023-02-15T04:26:16;5.70;88.80
21169;DHT22;10742;51.816;8.662;2023-02-15T04:29:20;5.70;88.80
21169;DHT22;10742;51.816;8.662;2023-02-15T04:32:22;5.70;89.00
21169;DHT22;10742;51.816;8.662;2023-02-15T04:35:24;5.70;89.00
21169;DHT22;10742;51.816;8.662;2023-02-15T04:38:27;5.70;89.20
21169;DHT22;10742;51.816;8.662;2023-02-15T04:41:30;5.70;89.20
21169;DHT22;10742;51.816;8.662;2023-02-15T04:44:32;5.70;89.40
21169;DHT22;10742;51.816;8.662;2023-02-15T04:47:34;5.70;89.50
21169;DHT22;10742;51.816;8.662;2023-02-15T04:50:36;5.70;89.50
21169;DHT22;10742;51.816;8.662;2023-02-15T04:53:39;5.60;89.50
21169;DHT22;10742;51.816;8.662;2023-02-15T04:56:42;5.70;89.60
21169;DHT22;10742;51.816;8.662;2023-02-15T04:59:44;5.60;89.60
21169;DHT22;10742;51.816;8.662;2023-02-15T05:02:46;5.60;89.70
21169;DHT22;10742;51.816;8.662;2023-02-15T05:05:49;5.60;89.80
21169;DHT22;10742;51.816;8.662;2023-02-15T05:08:51;5.60;89.90
21169;DHT22;10742;51.816;8.662;2023-02-15T05:11:54;5.60;90.00
21169;DHT22;10742;51.816;8.662;2023-02-15T05:14:56;5.60;90.00
21169;DHT22;10742;51.816;8.662;2023-02-15T05:17:58;5.60;90.00
21169;DHT22;10742;51.816;8.662;2023-02-15T05:21:00;5.60;90.00
21169;DHT22;10742;51.816;8.662;2023-02-15T05:24:03;5.60;90.30
21169;DHT22;10742;51.816;8.662;2023-02-15T05:27:26;5.60;90.00
21169;DHT22;10742;51.816;8.662;2023-02-15T05:30:59;5.60;90.00
21169;DHT22;10742;51.816;8.662;2023-02-15T05:34:03;5.60;90.10
21169;DHT22;10742;51.816;8.662;2023-02-15T05:37:06;5.60;90.00
21169;DHT22;10742;51.816;8.662;2023-02-15T05:40:09;5.60;90.00
21169;DHT22;10742;51.816;8.662;2023-02-15T05:43:12;5.60;90.00
21169;DHT22;10742;51.816;8.662;2023-02-15T05:46:14;5.60;90.10
21169;DHT22;10742;51.816;8.662;2023-02-15T05:49:17;5.60;90.00
21169;DHT22;10742;51.816;8.662;2023-02-15T05:52:19;5.60;90.10
21169;DHT22;10742;51.816;8.662;2023-02-15T05:55:21;5.60;90.10
21169;DHT22;10742;51.816;8.662;2023-02-15T05:58:25;5.60;90.10
21169;DHT22;10742;51.816;8.662;2023-02-15T06:01:27;5.60;90.10
21169;DHT22;10742;51.816;8.662;2023-02-15T06:04:29;5.60;90.10
21169;DHT22;10742;51.816;8.662;2023-02-15T06:07:32;5.60;90.00
21169;DHT22;10742;51.816;8.662;2023-02-15T06:10:34;5.60;90.00
21169;DHT22;10742;51.816;8.662;2023-02-15T06:13:36;5.60;90.00
21169;DHT22;10742;51.816;8.662;2023-02-15T06:16:40;5.60;90.00
21169;DHT22;10742;51.816;8.662;2023-02-15T06:19:43;5.60;90.10
21169;DHT22;10742;51.816;8.662;2023-02-15T06:22:46;5.60;90.10
21169;DHT22;10742;51.816;8.662;2023-02-15T06:25:49;5.60;90.10
21169;DHT22;10742;51.816;8.662;2023-02-15T06:28:51;5.50;90.00
21169;DHT22;10742;51.816;8.662;2023-02-15T06:31:54;5.50;90.10
21169;DHT22;10742;51.816;8.662;2023-02-15T06:34:56;5.50;90.20
21169;DHT22;10742;51.816;8.662;2023-02-15T06:37:59;5.50;90.30
21169;DHT22;10742;51.816;8.662;2023-02-15T06:41:01;5.50;90.30
21169;DHT22;10742;51.816;8.662;2023-02-15T06:44:05;5.50;90.30
21169;DHT22;10742;51.816;8.662;2023-02-15T06:47:08;5.50;90.30
21169;DHT22;10742;51.816;8.662;2023-02-15T06:50:10;5.50;90.30
21169;DHT22;10742;51.816;8.662;2023-02-15T06:53:13;5.40;90.30
21169;DHT22;10742;51.816;8.662;2023-02-15T06:56:15;5.50;90.30
21169;DHT22;10742;51.816;8.662;2023-02-15T06:59:18;5.40;90.30
21169;DHT22;10742;51.816;8.662;2023-02-15T07:02:20;5.50;90.30
21169;DHT22;10742;51.816;8.662;2023-02-15T07:05:23;5.50;90.30
21169;DHT22;10742;51.816;8.662;2023-02-15T07:08:26;5.50;90.40
21169;DHT22;10742;51.816;8.662;2023-02-15T07:11:30;5.50;90.50
21169;DHT22;10742;51.816;8.662;2023-02-15T07:14:51;5.50;90.50
21169;DHT22;10742;51.816;8.662;2023-02-15T07:17:53;5.50;90.50
21169;DHT22;10742;51.816;8.662;2023-02-15T07:20:56;5.50;90.50
21169;DHT22;10742;51.816;8.662;2023-02-15T07:23:58;5.50;90.50
21169;DHT22;10742;51.816;8.662;2023-02-15T07:27:01;5.50;90.60
21169;DHT22;10742;51.816;8.662;2023-02-15T07:30:05;5.50;90.60
21169;DHT22;10742;51.816;8.662;2023-02-15T07:33:09;5.50;90.80
21169;DHT22;10742;51.816;8.662;2023-02-15T07:36:29;5.60;90.80
21169;DHT22;10742;51.816;8.662;2023-02-15T07:39:31;5.60;90.90
21169;DHT22;10742;51.816;8.662;2023-02-15T07:42:34;5.60;90.90
21169;DHT22;10742;51.816;8.662;2023-02-15T07:45:36;5.70;91.40
21169;DHT22;10742;51.816;8.662;2023-02-15T07:48:39;5.80;91.10
21169;DHT22;10742;51.816;8.662;2023-02-15T07:51:42;5.80;91.20
21169;DHT22;10742;51.816;8.662;2023-02-15T07:54:45;5.90;91.20
21169;DHT22;10742;51.816;8.662;2023-02-15T07:57:49;6.00;91.20
21169;DHT22;10742;51.816;8.662;2023-02-15T08:00:52;6.10;91.20
21169;DHT22;10742;51.816;8.662;2023-02-15T08:04:01;6.20;91.20
21169;DHT22;10742;51.816;8.662;2023-02-15T08:07:04;6.30;91.30
21169;DHT22;10742;51.816;8.662;2023-02-15T08:10:06;6.40;91.30
21169;DHT22;10742;51.816;8.662;2023-02-15T08:13:09;6.50;91.30
21169;DHT22;10742;51.816;8.662;2023-02-15T08:16:12;6.60;91.20
21169;DHT22;10742;51.816;8.662;2023-02-15T08:19:27;6.70;91.30
21169;DHT22;10742;51.816;8.662;2023-02-15T08:22:30;6.80;91.30
21169;DHT22;10742;51.816;8.662;2023-02-15T08:25:33;7.00;91.30
21169;DHT22;10742;51.816;8.662;2023-02-15T08:28:36;7.10;91.30
21169;DHT22;10742;51.816;8.662;2023-02-15T08:31:40;7.20;91.40
21169;DHT22;10742;51.816;8.662;2023-02-15T08:34:44;7.40;91.30
21169;DHT22;10742;51.816;8.662;2023-02-15T08:37:46;7.50;91.30
21169;DHT22;10742;51.816;8.662;2023-02-15T08:40:50;7.70;91.30
21169;DHT22;10742;51.816;8.662;2023-02-15T08:43:54;7.80;91.20
21169;DHT22;10742;51.816;8.662;2023-02-15T08:46:57;8.00;91.10
21169;DHT22;10742;51.816;8.662;2023-02-15T08:50:05;8.10;91.10
21169;DHT22;10742;51.816;8.662;2023-02-15T08:53:08;8.30;91.00
21169;DHT22;10742;51.816;8.662;2023-02-15T08:56:11;8.40;90.90
21169;DHT22;10742;51.816;8.662;2023-02-15T08:59:22;8.60;90.90
21169;DHT22;10742;51.816;8.662;2023-02-15T09:02:24;8.70;90.70
21169;DHT22;10742;51.816;8.662;2023-02-15T09:05:27;8.90;90.70
21169;DHT22;10742;51.816;8.662;2023-02-15T09:08:29;9.10;90.60
21169;DHT22;10742;51.816;8.662;2023-02-15T09:11:35;9.20;90.50
21169;DHT22;10742;51.816;8.662;2023-02-15T09:14:37;9.40;90.40
21169;DHT22;10742;51.816;8.662;2023-02-15T09:17:40;9.50;90.30
21169;DHT22;10742;51.816;8.662;2023-02-15T09:20:43;9.70;90.20
21169;DHT22;10742;51.816;8.662;2023-02-15T09:23:48;9.80;90.10
21169;DHT22;10742;51.816;8.662;2023-02-15T09:26:51;10.00;90.00
21169;DHT22;10742;51.816;8.662;2023-02-15T09:29:54;10.10;90.00
21169;DHT22;10742;51.816;8.662;2023-02-15T09:32:56;10.30;89.90
21169;DHT22;10742;51.816;8.662;2023-02-15T09:36:00;10.50;89.60
21169;DHT22;10742;51.816;8.662;2023-02-15T09:39:25;10.60;89.30
21169;DHT22;10742;51.816;8.662;2023-02-15T09:42:49;10.90;88.70
21169;DHT22;10742;51.816;8.662;2023-02-15T09:46:21;11.00;87.80
21169;DHT22;10742;51.816;8.662;2023-02-15T09:56:00;11.50;87.60
21169;DHT22;10742;51.816;8.662;2023-02-15T10:02:56;11.90;86.30
21169;DHT22;10742;51.816;8.662;2023-02-15T10:06:21;12.10;85.80
21169;DHT22;10742;51.816;8.662;2023-02-15T10:09:41;12.30;85.20
21169;DHT22;10742;51.816;8.662;2023-02-15T10:13:06;12.40;84.90
21169;DHT22;10742;51.816;8.662;2023-02-15T10:16:25;12.50;84.00
21169;DHT22;10742;51.816;8.662;2023-02-15T10:19:49;12.60;83.90
21169;DHT22;10742;51.816;8.662;2023-02-15T10:26:47;12.90;83.10
21169;DHT22;10742;51.816;8.662;2023-02-15T10:30:11;13.10;82.90
21169;DHT22;10742;51.816;8.662;2023-02-15T10:33:39;13.10;82.40
21169;DHT22;10742;51.816;8.662;2023-02-15T10:40:16;13.40;83.40
21169;DHT22;10742;51.816;8.662;2023-02-15T10:43:58;13.50;82.10
21169;DHT22;10742;51.816;8.662;2023-02-15T10:47:21;13.60;81.90
21169;DHT22;10742;51.816;8.662;2023-02-15T10:50:32;13.80;81.70
21169;DHT22;10742;51.816;8.662;2023-02-15T10:54:02;13.90;81.90
21169;DHT22;10742;51.816;8.662;2023-02-15T11:04:33;14.40;80.10
21169;DHT22;10742;51.816;8.662;2023-02-15T11:07:41;14.60;80.30
21169;DHT22;10742;51.816;8.662;2023-02-15T11:10:55;14.70;80.70
21169;DHT22;10742;51.816;8.662;2023-02-15T11:14:05;14.80;79.30
21169;DHT22;10742;51.816;8.662;2023-02-15T11:17:19;14.90;79.50
21169;DHT22;10742;51.816;8.662;2023-02-15T11:20:52;15.10;79.10
21169;DHT22;10742;51.816;8.662;2023-02-15T11:23:55;15.20;77.90
21169;DHT22;10742;51.816;8.662;2023-02-15T11:27:19;15.30;79.10
21169;DHT22;10742;51.816;8.662;2023-02-15T11:30:25;15.40;77.00
21169;DHT22;10742;51.816;8.662;2023-02-15T11:33:35;15.50;77.90
21169;DHT22;10742;51.816;8.662;2023-02-15T11:36:40;15.60;77.00
21169;DHT22;10742;51.816;8.662;2023-02-15T11:39:43;15.70;77.00
21169;DHT22;10742;51.816;8.662;2023-02-15T11:42:48;15.80;77.40
21169;DHT22;10742;51.816;8.662;2023-02-15T11:45:55;15.90;77.10
21169;DHT22;10742;51.816;8.662;2023-02-15T11:48:59;16.00;76.70
21169;DHT22;10742;51.816;8.662;2023-02-15T11:52:12;16.10;76.60
21169;DHT22;10742;51.816;8.662;2023-02-15T11:55:20;16.10;75.40
21169;DHT22;10742;51.816;8.662;2023-02-15T12:01:46;16.20;75.20
21169;DHT22;10742;51.816;8.662;2023-02-15T12:04:54;16.30;75.60
21169;DHT22;10742;51.816;8.662;2023-02-15T12:08:02;16.30;74.80
21169;DHT22;10742;51.816;8.662;2023-02-15T12:11:09;16.40;74.50
21169;DHT22;10742;51.816;8.662;2023-02-15T12:14:14;16.40;75.10
21169;DHT22;10742;51.816;8.662;2023-02-15T12:17:28;16.50;75.10
21169;DHT22;10742;51.816;8.662;2023-02-15T12:20:33;16.60;73.60
21169;DHT22;10742;51.816;8.662;2023-02-15T12:24:12;16.60;73.90
21169;DHT22;10742;51.816;8.662;2023-02-15T12:27:20;16.70;72.40
21169;DHT22;10742;51.816;8.662;2023-02-15T12:30:31;16.70;73.60
21169;DHT22;10742;51.816;8.662;2023-02-15T12:33:41;16.80;72.60
21169;DHT22;10742;51.816;8.662;2023-02-15T12:36:53;16.90;73.20
21169;DHT22;10742;51.816;8.662;2023-02-15T12:40:17;17.00;72.70
21169;DHT22;10742;51.816;8.662;2023-02-15T12:43:35;17.00;72.90
21169;DHT22;10742;51.816;8.662;2023-02-15T12:46:38;17.10;71.80
21169;DHT22;10742;51.816;8.662;2023-02-15T12:49:40;17.10;72.90
21169;DHT22;10742;51.816;8.662;2023-02-15T12:52:50;17.20;72.50
21169;DHT22;10742;51.816;8.662;2023-02-15T12:55:58;17.20;71.60
21169;DHT22;10742;51.816;8.662;2023-02-15T12:59:05;17.30;71.00
21169;DHT22;10742;51.816;8.662;2023-02-15T13:05:43;17.30;70.10
21169;DHT22;10742;51.816;8.662;2023-02-15T13:09:12;17.40;71.50
21169;DHT22;10742;51.816;8.662;2023-02-15T13:12:23;17.40;71.00
21169;DHT22;10742;51.816;8.662;2023-02-15T13:15:39;17.40;70.00
21169;DHT22;10742;51.816;8.662;2023-02-15T13:18:46;17.40;70.40
21169;DHT22;10742;51.816;8.662;2023-02-15T13:21:52;17.40;70.40
21169;DHT22;10742;51.816;8.662;2023-02-15T13:25:03;17.40;70.50
21169;DHT22;10742;51.816;8.662;2023-02-15T13:28:12;17.40;69.80
21169;DHT22;10742;51.816;8.662;2023-02-15T13:31:20;17.50;69.60
21169;DHT22;10742;51.816;8.662;2023-02-15T13:34:27;17.50;69.80
21169;DHT22;10742;51.816;8.662;2023-02-15T13:37:42;17.50;69.80
21169;DHT22;10742;51.816;8.662;2023-02-15T13:40:55;17.50;70.40
21169;DHT22;10742;51.816;8.662;2023-02-15T13:47:49;17.60;69.30
21169;DHT22;10742;51.816;8.662;2023-02-15T13:51:13;17.60;69.30
21169;DHT22;10742;51.816;8.662;2023-02-15T13:54:28;17.70;69.00
21169;DHT22;10742;51.816;8.662;2023-02-15T14:08:17;17.70;69.70
21169;DHT22;10742;51.816;8.662;2023-02-15T14:11:41;17.70;70.80
21169;DHT22;10742;51.816;8.662;2023-02-15T14:15:08;17.80;70.70
21169;DHT22;10742;51.816;8.662;2023-02-15T14:21:27;17.80;69.80
21169;DHT22;10742;51.816;8.662;2023-02-15T14:25:02;17.90;70.10
21169;DHT22;10742;51.816;8.662;2023-02-15T14:28:33;17.90;70.10
21169;DHT22;10742;51.816;8.662;2023-02-15T14:31:48;18.00;70.00
21169;DHT22;10742;51.816;8.662;2023-02-15T14:34:57;18.00;69.20
21169;DHT22;10742;51.816;8.662;2023-02-15T14:38:13;18.10;69.60
21169;DHT22;10742;51.816;8.662;2023-02-15T14:41:31;18.10;69.90
21169;DHT22;10742;51.816;8.662;2023-02-15T14:44:44;18.10;69.10
21169;DHT22;10742;51.816;8.662;2023-02-15T14:48:03;18.00;68.90
21169;DHT22;10742;51.816;8.662;2023-02-15T14:51:08;18.00;68.20
21169;DHT22;10742;51.816;8.662;2023-02-15T14:57:24;18.00;69.80
21169;DHT22;10742;51.816;8.662;2023-02-15T15:00:38;17.90;69.20
21169;DHT22;10742;51.816;8.662;2023-02-15T15:03:51;17.90;69.20
21169;DHT22;10742;51.816;8.662;2023-02-15T15:07:19;17.90;69.20
21169;DHT22;10742;51.816;8.662;2023-02-15T15:10:44;17.90;69.10
21169;DHT22;10742;51.816;8.662;2023-02-15T15:13:58;17.80;69.50
21169;DHT22;10742;51.816;8.662;2023-02-15T15:17:03;17.80;68.90
21169;DHT22;10742;51.816;8.662;2023-02-15T15:20:19;17.80;69.30
21169;DHT22;10742;51.816;8.662;2023-02-15T15:23:41;17.70;68.90
21169;DHT22;10742;51.816;8.662;2023-02-15T15:26:44;17.60;68.90
21169;DHT22;10742;51.816;8.662;2023-02-15T15:29:51;17.50;69.30
21169;DHT22;10742;51.816;8.662;2023-02-15T15:43:26;17.10;69.30
21169;DHT22;10742;51.816;8.662;2023-02-15T15:50:13;16.80;69.40
21169;DHT22;10742;51.816;8.662;2023-02-15T15:53:22;16.70;69.80
21169;DHT22;10742;51.816;8.662;2023-02-15T15:56:35;16.60;69.60
21169;DHT22;10742;51.816;8.662;2023-02-15T15:59:44;16.50;69.70
21169;DHT22;10742;51.816;8.662;2023-02-15T16:02:51;16.40;70.00
21169;DHT22;10742;51.816;8.662;2023-02-15T16:05:55;16.30;70.00
21169;DHT22;10742;51.816;8.662;2023-02-15T16:09:19;16.20;70.30
21169;DHT22;10742;51.816;8.662;2023-02-15T16:12:23;16.00;70.30
21169;DHT22;10742;51.816;8.662;2023-02-15T16:15:34;15.90;70.70
21169;DHT22;10742;51.816;8.662;2023-02-15T16:18:37;15.80;70.60
21169;DHT22;10742;51.816;8.662;2023-02-15T16:21:41;15.70;70.90
21169;DHT22;10742;51.816;8.662;2023-02-15T16:28:11;15.50;71.10
21169;DHT22;10742;51.816;8.662;2023-02-15T16:31:15;15.40;71.20
21169;DHT22;10742;51.816;8.662;2023-02-15T16:34:18;15.30;71.50
21169;DHT22;10742;51.816;8.662;2023-02-15T16:37:23;15.10;71.70
21169;DHT22;10742;51.816;8.662;2023-02-15T16:40:38;15.10;71.80
21169;DHT22;10742;51.816;8.662;2023-02-15T16:43:45;14.90;71.80
21169;DHT22;10742;51.816;8.662;2023-02-15T16:46:51;14.80;72.50
21169;DHT22;10742;51.816;8.662;2023-02-15T16:49:59;14.70;72.10
21169;DHT22;10742;51.816;8.662;2023-02-15T16:53:06;14.60;72.30
21169;DHT22;10742;51.816;8.662;2023-02-15T16:56:09;14.50;72.40
21169;DHT22;10742;51.816;8.662;2023-02-15T16:59:33;14.30;72.50
21169;DHT22;10742;51.816;8.662;2023-02-15T17:02:36;14.20;73.00
21169;DHT22;10742;51.816;8.662;2023-02-15T17:05:59;14.10;72.90
21169;DHT22;10742;51.816;8.662;2023-02-15T17:09:12;13.90;73.20
21169;DHT22;10742;51.816;8.662;2023-02-15T17:12:47;13.80;73.50
21169;DHT22;10742;51.816;8.662;2023-02-15T17:19:16;13.60;73.80
21169;DHT22;10742;51.816;8.662;2023-02-15T17:22:23;13.50;73.90
21169;DHT22;10742;51.816;8.662;2023-02-15T17:25:37;13.30;73.90
21169;DHT22;10742;51.816;8.662;2023-02-15T17:29:22;13.20;74.10
21169;DHT22;10742;51.816;8.662;2023-02-15T17:32:31;13.10;74.50
21169;DHT22;10742;51.816;8.662;2023-02-15T17:35:35;13.00;74.50
21169;DHT22;10742;51.816;8.662;2023-02-15T17:38:58;12.90;74.50
21169;DHT22;10742;51.816;8.662;2023-02-15T17:42:01;12.80;74.80
21169;DHT22;10742;51.816;8.662;2023-02-15T17:45:05;12.70;75.00
21169;DHT22;10742;51.816;8.662;2023-02-15T17:48:21;12.60;75.20
21169;DHT22;10742;51.816;8.662;2023-02-15T17:51:24;12.50;75.60
21169;DHT22;10742;51.816;8.662;2023-02-15T17:54:27;12.50;75.50
21169;DHT22;10742;51.816;8.662;2023-02-15T17:57:48;12.40;75.70
21169;DHT22;10742;51.816;8.662;2023-02-15T18:00:54;12.30;75.80
21169;DHT22;10742;51.816;8.662;2023-02-15T18:04:17;12.30;76.20
21169;DHT22;10742;51.816;8.662;2023-02-15T18:07:39;12.20;76.20
21169;DHT22;10742;51.816;8.662;2023-02-15T18:11:00;12.10;76.20
21169;DHT22;10742;51.816;8.662;2023-02-15T18:14:21;12.00;76.30
21169;DHT22;10742;51.816;8.662;2023-02-15T18:17:28;11.90;76.50
21169;DHT22;10742;51.816;8.662;2023-02-15T18:20:34;11.90;76.80
21169;DHT22;10742;51.816;8.662;2023-02-15T18:23:38;11.80;76.90
21169;DHT22;10742;51.816;8.662;2023-02-15T18:26:41;11.80;77.70
21169;DHT22;10742;51.816;8.662;2023-02-15T18:29:44;11.70;77.40
21169;DHT22;10742;51.816;8.662;2023-02-15T18:32:50;11.70;77.70
21169;DHT22;10742;51.816;8.662;2023-02-15T18:35:53;11.60;77.70
21169;DHT22;10742;51.816;8.662;2023-02-15T18:38:55;11.50;77.50
21169;DHT22;10742;51.816;8.662;2023-02-15T18:42:00;11.50;77.70
21169;DHT22;10742;51.816;8.662;2023-02-15T18:48:15;11.30;78.10
21169;DHT22;10742;51.816;8.662;2023-02-15T18:51:20;11.30;78.00
21169;DHT22;10742;51.816;8.662;2023-02-15T18:54:24;11.30;79.00
21169;DHT22;10742;51.816;8.662;2023-02-15T18:57:27;11.20;78.20
21169;DHT22;10742;51.816;8.662;2023-02-15T19:00:32;11.10;78.20
21169;DHT22;10742;51.816;8.662;2023-02-15T19:03:35;11.00;78.30
21169;DHT22;10742;51.816;8.662;2023-02-15T19:06:42;11.00;79.20
21169;DHT22;10742;51.816;8.662;2023-02-15T19:09:49;10.90;78.70
21169;DHT22;10742;51.816;8.662;2023-02-15T19:12:53;10.90;79.00
21169;DHT22;10742;51.816;8.662;2023-02-15T19:15:56;10.80;78.90
21169;DHT22;10742;51.816;8.662;2023-02-15T19:19:01;10.80;79.00
21169;DHT22;10742;51.816;8.662;2023-02-15T19:22:03;10.80;79.20
21169;DHT22;10742;51.816;8.662;2023-02-15T19:25:06;10.70;80.00
21169;DHT22;10742;51.816;8.662;2023-02-15T19:28:18;10.70;79.20
21169;DHT22;10742;51.816;8.662;2023-02-15T19:31:22;10.60;79.50
21169;DHT22;10742;51.816;8.662;2023-02-15T19:34:26;10.60;79.30
21169;DHT22;10742;51.816;8.662;2023-02-15T19:37:35;10.50;79.30
21169;DHT22;10742;51.816;8.662;2023-02-15T19:40:40;10.50;79.60
21169;DHT22;10742;51.816;8.662;2023-02-15T19:43:46;10.50;79.50
21169;DHT22;10742;51.816;8.662;2023-02-15T19:46:55;10.50;79.80
21169;DHT22;10742;51.816;8.662;2023-02-15T19:49:57;10.40;79.60
21169;DHT22;10742;51.816;8.662;2023-02-15T19:53:05;10.40;79.80
21169;DHT22;10742;51.816;8.662;2023-02-15T19:56:12;10.30;79.80
21169;DHT22;10742;51.816;8.662;2023-02-15T20:02:26;10.30;80.20
21169;DHT22;10742;51.816;8.662;2023-02-15T20:05:30;10.20;80.00
21169;DHT22;10742;51.816;8.662;2023-02-15T20:08:35;10.20;80.10
21169;DHT22;10742;51.816;8.662;2023-02-15T20:11:38;10.20;80.10
21169;DHT22;10742;51.816;8.662;2023-02-15T20:14:40;10.10;80.10
21169;DHT22;10742;51.816;8.662;2023-02-15T20:17:43;10.10;80.20
21169;DHT22;10742;51.816;8.662;2023-02-15T20:20:50;10.10;80.30
21169;DHT22;10742;51.816;8.662;2023-02-15T20:23:53;10.00;80.40
21169;DHT22;10742;51.816;8.662;2023-02-15T20:26:55;10.00;80.50
21169;DHT22;10742;51.816;8.662;2023-02-15T20:29:58;10.00;80.50
21169;DHT22;10742;51.816;8.662;2023-02-15T20:33:01;9.90;80.50
21169;DHT22;10742;51.816;8.662;2023-02-15T20:36:04;9.90;80.70
21169;DHT22;10742;51.816;8.662;2023-02-15T20:39:15;9.90;80.80
21169;DHT22;10742;51.816;8.662;2023-02-15T20:42:19;9.90;81.10
21169;DHT22;10742;51.816;8.662;2023-02-15T20:45:24;9.80;80.80
21169;DHT22;10742;51.816;8.662;2023-02-15T20:48:27;9.80;81.00
21169;DHT22;10742;51.816;8.662;2023-02-15T20:51:30;9.80;80.90
21169;DHT22;10742;51.816;8.662;2023-02-15T20:54:33;9.80;80.90
21169;DHT22;10742;51.816;8.662;2023-02-15T20:57:36;9.80;81.00
21169;DHT22;10742;51.816;8.662;2023-02-15T21:00:39;9.70;80.90
21169;DHT22;10742;51.816;8.662;2023-02-15T21:03:42;9.70;80.90
21169;DHT22;10742;51.816;8.662;2023-02-15T21:06:44;9.70;81.10
21169;DHT22;10742;51.816;8.662;2023-02-15T21:09:47;9.70;81.10
21169;DHT22;10742;51.816;8.662;2023-02-15T21:12:50;9.60;81.00
21169;DHT22;10742;51.816;8.662;2023-02-15T21:15:54;9.60;81.10
21169;DHT22;10742;51.816;8.662;2023-02-15T21:18:56;9.50;81.10
21169;DHT22;10742;51.816;8.662;2023-02-15T21:21:59;9.50;81.20
21169;DHT22;10742;51.816;8.662;2023-02-15T21:25:02;9.40;81.40
21169;DHT22;10742;51.816;8.662;2023-02-15T21:28:05;9.40;81.50
21169;DHT22;10742;51.816;8.662;2023-02-15T21:31:19;9.30;81.50
21169;DHT22;10742;51.816;8.662;2023-02-15T21:34:21;9.30;82.00